Time;durP1;ratioP1;P1;durP2;ratioP2;P2;SDS_P1;SDS_P2;PMS_P1;PMS_P2;Temp;Humidity;BMP_temperature;BMP_pressure;BME280_temperature;BME280_humidity;BME280_pressure;Samples;Min_cycle;Max_cycle;Signal;HPM_P1;HPM_P2
2021/12/19 00:03:05;;;;;;;7.87;7.17;;;;;;;3.78;100.00;100667.88;20969981;28;20227;-59
2021/12/19 00:13:09;;;;;;;9.07;8.17;;;;;;;3.76;100.00;100680.25;20966793;28;20313;-59
2021/12/19 00:23:13;;;;;;;8.67;7.77;;;;;;;3.69;100.00;100641.78;20914782;28;20300;-58
2021/12/19 00:33:16;;;;;;;7.90;6.60;;;;;;;3.66;100.00;100636.56;20841894;28;20835;-57
2021/12/19 00:43:32;;;;;;;6.70;6.00;;;;;;;3.63;100.00;100592.66;20829873;28;20232;-57
2021/12/19 00:53:35;;;;;;;6.40;5.80;;;;;;;3.61;100.00;100572.53;20903614;28;20229;-57
2021/12/19 01:03:43;;;;;;;7.33;6.63;;;;;;;3.58;100.00;100546.25;20868473;28;20721;-57
2021/12/19 01:13:46;;;;;;;7.30;6.60;;;;;;;3.55;100.00;100527.88;20908880;28;20242;-58
2021/12/19 01:43:44;;;;;;;7.47;6.50;;;;;;;3.42;100.00;100479.06;21212131;27;20572;-58
2021/12/19 01:53:47;;;;;;;6.53;5.90;;;;;;;3.40;100.00;100443.94;21225971;27;20217;-58
2021/12/19 02:03:50;;;;;;;6.87;6.17;;;;;;;3.40;100.00;100378.88;21225106;27;20848;-56
2021/12/19 02:23:51;;;;;;;6.80;6.10;;;;;;;3.40;100.00;100349.00;21059378;27;20589;-58
2021/12/19 02:34:02;;;;;;;7.87;7.00;;;;;;;3.47;100.00;100324.13;21057207;28;20705;-58
2021/12/19 02:54:28;;;;;;;6.40;5.80;;;;;;;3.57;100.00;100309.72;21055716;27;20237;-58
2021/12/19 03:04:31;;;;;;;6.40;5.80;;;;;;;3.61;100.00;100300.78;21054854;28;20261;-58
2021/12/19 03:24:56;;;;;;;6.47;5.87;;;;;;;3.71;100.00;100249.38;21053461;28;20222;-58
2021/12/19 03:44:57;;;;;;;5.97;5.47;;;;;;;3.84;100.00;100234.81;20971657;27;21171;-58
2021/12/19 03:55:01;;;;;;;5.83;5.23;;;;;;;3.92;100.00;100211.59;20973758;28;20580;-57
2021/12/19 04:05:05;;;;;;;5.63;5.13;;;;;;;3.95;100.00;100177.19;20971225;28;20219;-58
2021/12/19 04:15:11;;;;;;;5.13;4.63;;;;;;;4.03;100.00;100158.38;20957219;28;20242;-58
2021/12/19 04:25:15;;;;;;;5.53;4.93;;;;;;;4.09;100.00;100144.09;20888937;28;20227;-58
2021/12/19 04:35:19;;;;;;;5.83;5.23;;;;;;;4.13;100.00;100116.63;20963202;28;20318;-58
2021/12/19 05:06:10;;;;;;;7.70;6.20;;;;;;;4.34;100.00;100057.63;20881644;28;20228;-59
2021/12/19 05:16:16;;;;;;;8.13;7.07;;;;;;;4.40;100.00;100083.75;20842648;28;20236;-58
2021/12/19 05:26:19;;;;;;;7.93;7.13;;;;;;;4.51;100.00;100083.31;20882312;28;20232;-58
2021/12/19 05:56:43;;;;;;;11.53;8.13;;;;;;;4.77;100.00;100063.66;21060659;27;20632;-58
2021/12/19 06:06:47;;;;;;;9.77;6.97;;;;;;;4.76;100.00;100046.94;21079930;27;20214;-58
2021/12/19 06:16:50;;;;;;;9.70;6.90;;;;;;;4.83;100.00;100026.41;21056054;28;20239;-58
2021/12/19 06:26:53;;;;;;;6.73;6.03;;;;;;;4.93;100.00;100017.13;21055472;28;20306;-58
2021/12/19 06:36:56;;;;;;;9.40;5.67;;;;;;;4.95;100.00;100012.63;21052255;28;20276;-58
2021/12/19 07:06:53;;;;;;;6.20;5.20;;;;;;;4.95;100.00;100004.69;21015491;27;1384212;-58
2021/12/19 07:16:56;;;;;;;5.13;4.37;;;;;;;4.98;100.00;100023.03;21012962;28;20254;-58
2021/12/19 07:26:59;;;;;;;7.37;4.80;;;;;;;4.98;100.00;100001.88;20972138;28;20238;-58
2021/12/19 07:37:03;;;;;;;7.33;5.00;;;;;;;4.99;100.00;100003.59;21046653;28;20226;-58
2021/12/19 07:47:07;;;;;;;5.53;4.13;;;;;;;5.02;100.00;99995.53;21054338;28;20262;-58
2021/12/19 07:57:10;;;;;;;7.83;4.97;;;;;;;5.05;100.00;99998.91;21008080;28;20553;-58
2021/12/19 08:07:16;;;;;;;7.63;4.77;;;;;;;5.03;100.00;99982.25;20966787;28;20322;-57
2021/12/19 08:17:21;;;;;;;6.70;4.80;;;;;;;5.18;100.00;99987.75;20949412;28;20278;-57
2021/12/19 08:27:26;;;;;;;5.87;4.30;;;;;;;5.29;100.00;99981.00;20974855;28;20226;-57
2021/12/19 08:37:29;;;;;;;5.67;3.60;;;;;;;5.35;100.00;99980.69;20924416;28;20231;-57
2021/12/19 08:47:32;;;;;;;8.20;4.43;;;;;;;5.40;100.00;99984.00;20965583;28;20721;-57
2021/12/19 08:57:37;;;;;;;7.27;4.33;;;;;;;5.48;100.00;99993.31;20919307;28;20705;-57
2021/12/19 09:07:40;;;;;;;7.57;4.70;;;;;;;5.54;100.00;99999.19;20922773;28;20317;-58
2021/12/19 09:17:44;;;;;;;8.53;4.97;;;;;;;5.57;100.00;99991.09;20943580;28;20571;-58
2021/12/19 09:27:48;;;;;;;6.90;3.87;;;;;;;5.61;100.00;99973.28;20883998;28;20236;-58
2021/12/19 09:37:52;;;;;;;8.47;3.40;;;;;;;5.69;100.00;99976.38;20881844;28;20236;-58
2021/12/19 09:47:56;;;;;;;8.83;3.40;;;;;;;5.84;100.00;99935.91;20878083;28;20779;-58
2021/12/19 09:57:59;;;;;;;7.07;3.27;;;;;;;6.10;100.00;99938.13;20862381;28;20250;-57
2021/12/19 10:08:04;;;;;;;5.60;3.43;;;;;;;6.03;100.00;99922.63;20874906;28;20230;-58
2021/12/19 10:28:14;;;;;;;5.73;3.50;;;;;;;6.26;100.00;99886.97;21007177;27;20314;-60
2021/12/19 10:38:36;;;;;;;6.37;3.43;;;;;;;6.21;100.00;99873.97;20949018;28;20990;-58
2021/12/19 10:48:47;;;;;;;8.70;3.80;;;;;;;6.37;100.00;99852.81;20973091;28;20245;-58
2021/12/19 10:58:57;;;;;;;6.97;4.10;;;;;;;6.32;100.00;99834.50;20943536;28;20733;-59
2021/12/19 11:09:09;;;;;;;6.60;4.27;;;;;;;6.40;100.00;99844.69;20945700;28;20261;-59
2021/12/19 11:19:13;;;;;;;10.37;4.13;;;;;;;6.32;100.00;99817.75;21031801;28;20301;-59
2021/12/19 11:29:17;;;;;;;10.53;4.70;;;;;;;6.35;100.00;99814.94;21051572;28;20315;-59
2021/12/19 11:39:21;;;;;;;7.93;4.87;;;;;;;6.28;100.00;99809.09;20915107;28;20257;-59
2021/12/19 11:49:27;;;;;;;9.13;4.87;;;;;;;6.22;100.00;99829.78;20923727;28;20743;-58
2021/12/19 11:59:30;;;;;;;10.33;4.47;;;;;;;6.12;100.00;99806.44;20924882;28;20282;-57
2021/12/19 12:09:39;;;;;;;9.70;5.03;;;;;;;6.10;100.00;99776.53;20969153;28;20760;-58
2021/12/19 12:19:58;;;;;;;8.83;5.97;;;;;;;6.07;100.00;99770.53;20989808;28;20226;-57
2021/12/19 12:30:01;;;;;;;8.97;5.43;;;;;;;6.06;100.00;99774.97;20944817;28;20742;-57
2021/12/19 12:40:21;;;;;;;9.80;4.97;;;;;;;5.91;100.00;99749.34;20989648;28;20640;-58
2021/12/19 12:50:26;;;;;;;12.47;6.33;;;;;;;5.67;100.00;99754.16;20949875;28;20303;-58
2021/12/19 13:00:30;;;;;;;9.27;4.70;;;;;;;5.34;100.00;99754.09;20951665;28;20223;-58
2021/12/19 13:10:34;;;;;;;12.33;5.17;;;;;;;5.24;100.00;99731.72;20915386;28;20628;-60
2021/12/19 13:20:38;;;;;;;8.27;4.20;;;;;;;5.14;100.00;99726.97;20906187;28;20265;-58
2021/12/19 13:30:43;;;;;;;7.00;3.03;;;;;;;4.88;100.00;99683.38;20906154;28;20277;-58
2021/12/19 13:40:49;;;;;;;10.20;3.77;;;;;;;4.86;100.00;99685.22;20905416;28;20219;-58
2021/12/19 13:50:57;;;;;;;6.77;3.43;;;;;;;4.89;100.00;99677.16;20903251;28;20219;-58
2021/12/19 14:01:10;;;;;;;5.67;3.00;;;;;;;4.79;100.00;99670.63;20902744;28;20238;-58
2021/12/19 14:11:19;;;;;;;9.17;3.20;;;;;;;4.79;100.00;99654.78;20901998;28;20310;-58
2021/12/19 14:21:40;;;;;;;8.00;3.30;;;;;;;4.74;100.00;99662.06;20902720;28;20314;-59
2021/12/19 14:31:54;;;;;;;8.50;3.63;;;;;;;4.79;100.00;99654.78;20902605;28;20219;-62
2021/12/19 14:42:19;;;;;;;10.20;4.20;;;;;;;4.80;100.00;99657.34;20901107;28;20723;-58
2021/12/19 14:52:27;;;;;;;9.63;4.80;;;;;;;4.82;100.00;99681.06;20949585;28;20563;-59
2021/12/19 15:02:30;;;;;;;6.07;3.50;;;;;;;4.89;100.00;99653.34;20983425;28;20732;-59
2021/12/19 15:12:34;;;;;;;8.37;3.90;;;;;;;4.67;100.00;99645.69;20995279;28;20268;-56
2021/12/19 15:22:38;;;;;;;5.30;1.17;;;;;;;3.19;100.00;99660.69;20997196;28;20723;-57
2021/12/19 15:32:41;;;;;;;1.03;0.90;;;;;;;2.29;100.00;99697.94;20998093;28;20232;-59
2021/12/19 15:42:45;;;;;;;2.20;1.30;;;;;;;1.97;100.00;99685.19;20996984;28;20233;-57
2021/12/19 15:52:49;;;;;;;2.93;1.90;;;;;;;1.72;100.00;99696.66;20996600;28;21027;-59
2021/12/19 16:12:49;;;;;;;5.33;3.30;;;;;;;1.70;100.00;99701.13;21146480;27;20985;-62
2021/12/19 16:22:53;;;;;;;5.23;2.90;;;;;;;1.62;100.00;99726.00;21140862;27;20300;-61
2021/12/19 16:32:57;;;;;;;3.63;2.83;;;;;;;1.49;100.00;99727.38;21141262;27;20557;-60
2021/12/19 17:03:26;;;;;;;4.43;2.87;;;;;;;1.25;100.00;99758.03;21161774;27;20387;-60
2021/12/19 17:13:36;;;;;;;6.70;2.60;;;;;;;1.40;100.00;99763.59;21142117;28;20535;-60
2021/12/19 17:23:40;;;;;;;5.23;2.70;;;;;;;1.26;100.00;99770.25;21141062;28;20229;-61
2021/12/19 17:33:43;;;;;;;6.23;2.73;;;;;;;0.94;100.00;99785.38;21139559;28;20264;-60
2021/12/19 17:53:44;;;;;;;6.07;2.07;;;;;;;0.81;100.00;99791.94;21147548;27;20639;-62
2021/12/19 18:03:56;;;;;;;4.63;1.97;;;;;;;0.96;100.00;99798.47;21198817;27;20274;-62
2021/12/19 18:23:58;;;;;;;3.73;2.07;;;;;;;0.80;100.00;99803.34;21059611;27;20624;-62
2021/12/19 18:34:11;;;;;;;5.87;2.00;;;;;;;0.56;100.00;99796.28;21056248;27;20218;-63
2021/12/19 18:44:19;;;;;;;5.77;2.90;;;;;;;0.45;100.00;99822.88;21057689;27;20218;-62
2021/12/19 18:54:36;;;;;;;5.83;2.60;;;;;;;0.41;100.00;99812.50;21019384;27;20227;-62
2021/12/19 19:04:40;;;;;;;7.67;3.43;;;;;;;0.33;100.00;99821.47;21053706;27;20225;-62
2021/12/19 19:14:47;;;;;;;8.37;3.43;;;;;;;0.42;100.00;99817.69;21023169;27;20229;-62
2021/12/19 19:34:49;;;;;;;4.13;2.83;;;;;;;0.31;100.00;99836.41;20940426;27;21075;-64
2021/12/19 19:54:49;;;;;;;3.37;2.40;;;;;;;0.57;100.00;99864.47;21170583;27;21055;-61
2021/12/19 20:04:53;;;;;;;3.90;2.50;;;;;;;0.70;100.00;99836.06;21192459;27;20241;-61
2021/12/19 20:15:06;;;;;;;5.13;2.57;;;;;;;0.76;100.00;99869.13;21113501;27;20225;-62
2021/12/19 20:25:19;;;;;;;2.70;1.90;;;;;;;0.81;100.00;99856.75;21105777;28;20272;-60
2021/12/19 20:45:20;;;;;;;3.40;2.00;;;;;;;0.95;100.00;99878.19;21073186;27;20649;-59
2021/12/19 20:55:24;;;;;;;4.00;2.13;;;;;;;1.03;100.00;99894.53;21017696;28;20244;-62
2021/12/19 21:05:33;;;;;;;4.77;2.43;;;;;;;1.11;100.00;99904.78;21026511;28;20735;-59
2021/12/19 21:26:06;;;;;;;5.60;2.80;;;;;;;1.23;100.00;99907.00;21021502;28;20230;-60
2021/12/19 21:56:28;;;;;;;7.10;2.80;;;;;;;1.02;100.00;99892.81;20984013;27;20569;-59
2021/12/19 22:06:34;;;;;;;6.20;2.63;;;;;;;1.00;100.00;99890.22;20969234;28;20257;-58
2021/12/19 22:16:42;;;;;;;5.60;2.83;;;;;;;1.15;100.00;99893.28;20929286;28;20227;-58
2021/12/19 22:26:46;;;;;;;6.17;2.97;;;;;;;1.06;100.00;99892.69;20889061;28;20322;-59
2021/12/19 22:46:51;;;;;;;5.30;2.73;;;;;;;1.21;100.00;99885.22;21059726;27;20579;-59
2021/12/19 22:57:14;;;;;;;5.37;3.20;;;;;;;1.16;100.00;99871.34;21055998;28;20225;-59
2021/12/19 23:07:19;;;;;;;5.97;2.40;;;;;;;1.22;100.00;99868.50;21056425;27;20234;-59
2021/12/19 23:17:25;;;;;;;5.93;2.60;;;;;;;1.28;100.00;99887.56;21053497;28;20302;-59
2021/12/19 23:27:29;;;;;;;4.10;2.20;;;;;;;1.26;100.00;99886.75;21007333;28;20534;-59
2021/12/19 23:37:38;;;;;;;3.37;2.00;;;;;;;1.30;100.00;99890.16;20974191;28;20248;-60
2021/12/19 23:47:42;;;;;;;5.03;2.10;;;;;;;1.31;100.00;99886.63;20969500;28;20696;-58
2021/12/19 23:57:45;;;;;;;5.43;2.40;;;;;;;1.28;100.00;99884.09;20915827;28;20776;-59
